Time;durP1;ratioP1;P1;durP2;ratioP2;P2;SDS_P1;SDS_P2;PMS_P1;PMS_P2;Temp;Humidity;BMP_temperature;BMP_pressure;BME280_temperature;BME280_humidity;BME280_pressure;Samples;Min_cycle;Max_cycle;Signal;HPM_P1;HPM_P2
2023/04/28 00:05:57;;;;;;;0.88;0.40;;;;;;;4.53;59.75;101516.25;15615818;28;20053;-53
2023/04/28 00:13:31;;;;;;;0.17;0.17;;;;;;;4.48;59.78;101516.69;15663289;28;20137;-50
2023/04/28 00:21:05;;;;;;;0.22;0.17;;;;;;;4.72;58.85;101513.44;15659281;28;20033;-50
2023/04/28 00:28:39;;;;;;;0.65;0.20;;;;;;;4.67;60.69;101506.91;15640617;28;20045;-49
2023/04/28 00:36:12;;;;;;;0.00;0.00;;;;;;;4.69;60.59;101492.44;15644810;28;20117;-51
2023/04/28 00:43:46;;;;;;;0.00;0.00;;;;;;;4.49;61.62;101493.59;15659225;28;20569;-52
2023/04/28 00:51:20;;;;;;;0.00;0.00;;;;;;;4.79;60.07;101479.91;15631303;28;20045;-54
2023/04/28 00:58:54;;;;;;;0.10;0.10;;;;;;;4.44;60.07;101491.41;15609310;28;20272;-50
2023/04/28 01:06:30;;;;;;;0.10;0.10;;;;;;;4.67;60.15;101467.84;15626744;28;20132;-50
2023/04/28 01:14:06;;;;;;;1.08;0.40;;;;;;;4.76;59.28;101468.75;15658062;28;20057;-50
2023/04/28 01:21:42;;;;;;;0.00;0.00;;;;;;;4.68;59.20;101463.38;15633474;28;20041;-53
2023/04/28 01:29:25;;;;;;;0.10;0.10;;;;;;;4.83;59.88;101459.16;15618211;28;20044;-51
2023/04/28 01:36:59;;;;;;;0.32;0.32;;;;;;;4.64;60.94;101462.00;15624697;28;20136;-49
2023/04/28 01:44:33;;;;;;;0.00;0.00;;;;;;;4.52;60.51;101448.97;15623147;28;20406;-49
2023/04/28 01:52:06;;;;;;;1.23;0.73;;;;;;;4.68;61.02;101456.22;15638801;28;20047;-50
2023/04/28 01:59:42;;;;;;;0.45;0.25;;;;;;;4.38;60.67;101367.06;15617057;28;20044;-50
2023/04/28 02:07:15;;;;;;;0.13;0.13;;;;;;;4.64;61.38;101436.25;15624004;28;20099;-49
2023/04/28 02:14:50;;;;;;;0.10;0.10;;;;;;;4.85;61.14;101430.59;15655872;28;20288;-51
2023/04/28 02:22:25;;;;;;;0.65;0.65;;;;;;;4.81;61.41;101426.56;15647398;28;20037;-48
2023/04/28 02:30:00;;;;;;;0.85;0.85;;;;;;;3.94;63.72;101425.47;15633308;28;20359;-51
2023/04/28 02:37:33;;;;;;;0.35;0.35;;;;;;;4.91;62.15;101421.16;15631862;28;20041;-51
2023/04/28 02:45:08;;;;;;;6.00;1.57;;;;;;;5.01;60.06;101414.72;15637814;28;20050;-50
2023/04/28 02:52:40;;;;;;;0.15;0.10;;;;;;;4.40;60.61;101370.44;15608056;28;20047;-51
2023/04/28 03:00:16;;;;;;;0.20;0.20;;;;;;;4.58;61.14;101408.44;15603493;28;20048;-50
2023/04/28 03:07:53;;;;;;;0.30;0.20;;;;;;;4.57;60.86;101400.63;15625556;28;20041;-51
2023/04/28 03:15:30;;;;;;;0.50;0.47;;;;;;;4.75;60.78;101397.91;15599037;28;20046;-49
2023/04/28 03:23:03;;;;;;;0.08;0.08;;;;;;;4.07;62.21;101390.56;15607623;28;20128;-49
2023/04/28 03:30:37;;;;;;;0.20;0.20;;;;;;;4.52;62.40;101387.81;15618682;28;20041;-49
2023/04/28 03:38:10;;;;;;;0.25;0.20;;;;;;;4.41;62.18;101389.88;15626609;28;20041;-48
2023/04/28 03:45:45;;;;;;;0.57;0.30;;;;;;;4.29;62.50;101373.31;15663223;28;20140;-52
2023/04/28 03:53:19;;;;;;;0.20;0.20;;;;;;;4.27;62.95;101377.97;15638202;28;20041;-50
2023/04/28 04:00:54;;;;;;;0.20;0.20;;;;;;;4.11;63.55;101372.53;15629969;28;20053;-48
2023/04/28 04:08:26;;;;;;;0.55;0.52;;;;;;;4.66;61.83;101372.25;15648518;28;20033;-50
2023/04/28 04:16:01;;;;;;;0.83;0.83;;;;;;;4.41;62.59;101360.63;15607880;28;20128;-50
2023/04/28 04:23:34;;;;;;;0.10;0.03;;;;;;;4.32;63.30;101349.94;15658331;28;20099;-48
2023/04/28 04:31:11;;;;;;;1.30;0.90;;;;;;;4.61;61.93;101351.44;15617575;22;20069;-49
2023/04/28 04:38:45;;;;;;;0.30;0.20;;;;;;;4.83;61.30;101355.41;15543139;28;20138;-51
2023/04/28 04:46:25;;;;;;;0.55;0.52;;;;;;;5.00;61.42;101351.88;15540855;28;20375;-51
2023/04/28 04:53:58;;;;;;;0.13;0.13;;;;;;;4.95;61.81;101353.34;15555240;28;20042;-50
2023/04/28 05:01:32;;;;;;;0.00;0.00;;;;;;;5.18;61.92;101340.31;15522850;28;20065;-50
2023/04/28 05:09:05;;;;;;;0.52;0.52;;;;;;;5.53;61.00;101332.09;15537931;28;20297;-54
2023/04/28 05:16:42;;;;;;;;;;;;;;;5.83;59.79;101321.84;15539190;28;20045;-51
2023/04/28 05:24:22;;;;;;;0.20;0.20;;;;;;;6.01;60.26;101324.38;15571355;28;19991;-52
2023/04/28 05:31:56;;;;;;;0.10;0.10;;;;;;;6.80;58.40;101325.44;15537845;28;20525;-55
2023/04/28 05:39:30;;;;;;;0.57;0.43;;;;;;;7.06;56.06;101304.66;15536767;28;20052;-54
2023/04/28 05:47:08;;;;;;;1.10;0.82;;;;;;;8.31;53.52;101312.53;15551686;28;20045;-56
2023/04/28 05:54:41;;;;;;;1.40;0.90;;;;;;;8.84;50.92;101303.47;15553800;28;20529;-53
2023/04/28 06:02:15;;;;;;;0.17;0.17;;;;;;;8.62;52.54;101296.34;15552164;28;20145;-52
2023/04/28 06:09:48;;;;;;;0.45;0.45;;;;;;;8.72;53.03;101291.59;15568670;28;20406;-53
2023/04/28 06:17:23;;;;;;;0.15;0.10;;;;;;;9.70;50.39;101283.06;15552157;28;20136;-51
2023/04/28 06:24:56;;;;;;;0.95;0.73;;;;;;;10.78;46.67;101283.72;15478872;28;20549;-55
2023/04/28 06:32:38;;;;;;;0.28;0.28;;;;;;;11.46;46.06;101273.03;15534776;28;20104;-54
2023/04/28 06:40:11;;;;;;;1.23;0.93;;;;;;;11.70;45.14;101271.63;15551363;28;20042;-50
2023/04/28 06:47:50;;;;;;;0.25;0.25;;;;;;;11.55;44.85;101260.25;15518671;28;20111;-51
2023/04/28 06:55:22;;;;;;;0.10;0.10;;;;;;;11.56;44.30;101259.19;15493390;28;20442;-52
2023/04/28 07:02:57;;;;;;;;;;;;;;;12.00;42.79;101245.22;15552717;28;20171;-53
2023/04/28 07:10:30;;;;;;;0.68;0.40;;;;;;;13.35;41.14;101229.31;15551941;28;19925;-54
2023/04/28 07:18:04;;;;;;;2.17;0.83;;;;;;;14.28;38.92;101218.63;15522397;28;20506;-53
2023/04/28 07:25:38;;;;;;;1.25;0.68;;;;;;;13.96;39.06;101212.47;15563718;28;20034;-54
2023/04/28 07:33:15;;;;;;;0.63;0.43;;;;;;;13.62;40.18;101208.41;15538905;28;20577;-51
2023/04/28 07:40:48;;;;;;;0.85;0.52;;;;;;;12.75;40.47;101200.75;15558053;28;20096;-51
2023/04/28 07:48:22;;;;;;;0.70;0.32;;;;;;;13.69;39.55;101195.66;15563564;28;20046;-48
2023/04/28 07:55:55;;;;;;;0.45;0.45;;;;;;;14.41;37.99;101191.47;15556622;28;20052;-51
2023/04/28 08:03:29;;;;;;;0.47;0.27;;;;;;;13.95;38.36;101181.97;15541050;28;20073;-48
2023/04/28 08:11:02;;;;;;;1.80;1.15;;;;;;;14.47;38.40;101176.25;15560000;28;20051;-53
2023/04/28 08:18:39;;;;;;;1.00;0.30;;;;;;;13.76;38.85;101172.19;15553366;28;20439;-54
2023/04/28 08:26:12;;;;;;;0.55;0.40;;;;;;;14.13;37.47;101158.72;15540193;28;20430;-50
2023/04/28 08:33:49;;;;;;;0.68;0.68;;;;;;;14.21;38.62;101153.88;15541145;28;20038;-55
2023/04/28 08:41:22;;;;;;;2.33;0.60;;;;;;;14.45;37.65;101145.91;15552753;28;20042;-49
2023/04/28 08:48:58;;;;;;;;;;;;;;;14.96;37.03;101152.78;15558938;28;20133;-54
2023/04/28 08:56:33;;;;;;;1.20;0.35;;;;;;;14.81;37.65;101128.88;15558179;28;19968;-51
2023/04/28 09:04:09;;;;;;;0.95;0.60;;;;;;;14.77;37.05;101122.28;15557914;28;20536;-50
2023/04/28 09:11:51;;;;;;;0.88;0.68;;;;;;;14.69;37.54;101104.50;15540839;28;20033;-51
2023/04/28 09:19:33;;;;;;;0.93;0.68;;;;;;;15.11;37.70;101115.34;15539091;28;20052;-51
2023/04/28 09:27:10;;;;;;;3.00;0.75;;;;;;;15.20;37.04;101105.00;15557288;28;20056;-51
2023/04/28 09:34:45;;;;;;;0.65;0.45;;;;;;;16.03;35.19;101087.78;15556818;28;20521;-54
2023/04/28 09:42:37;;;;;;;0.52;0.35;;;;;;;16.36;34.48;101078.16;15555650;28;20042;-51
2023/04/28 09:50:13;;;;;;;7.43;0.93;;;;;;;17.09;33.03;101072.81;15536632;28;20120;-50
2023/04/28 09:57:48;;;;;;;1.23;0.55;;;;;;;17.02;33.98;101074.00;15555768;28;20057;-51
2023/04/28 10:05:23;;;;;;;1.42;0.57;;;;;;;17.29;32.52;101058.75;15554040;28;20512;-49
2023/04/28 10:12:56;;;;;;;0.20;0.20;;;;;;;16.52;33.49;101044.91;15559940;28;20038;-51
2023/04/28 10:20:31;;;;;;;0.47;0.47;;;;;;;17.33;33.13;101050.94;15552992;28;20046;-51
2023/04/28 10:28:07;;;;;;;0.47;0.40;;;;;;;16.98;34.00;101032.22;15553653;28;20465;-47
2023/04/28 10:35:46;;;;;;;1.08;0.50;;;;;;;16.62;34.59;101028.00;15568123;28;20414;-51
2023/04/28 10:43:36;;;;;;;1.52;1.05;;;;;;;17.05;33.42;101011.16;15535784;28;20479;-48
2023/04/28 10:51:30;;;;;;;1.98;1.25;;;;;;;17.37;32.85;101013.28;15551433;28;20631;-47
2023/04/28 10:59:25;;;;;;;0.57;0.57;;;;;;;17.21;33.27;100993.25;15549958;28;20057;-54
2023/04/28 11:07:13;;;;;;;1.40;1.08;;;;;;;17.26;34.54;101002.28;15552043;28;20403;-49
2023/04/28 11:14:48;;;;;;;3.67;0.98;;;;;;;17.24;32.80;100987.31;15494742;28;20050;-48
2023/04/28 11:22:23;;;;;;;4.15;1.05;;;;;;;17.09;35.00;100985.19;15551227;28;20093;-51
2023/04/28 11:29:56;;;;;;;0.80;0.63;;;;;;;16.75;34.67;100989.78;15550798;28;20050;-50
2023/04/28 11:37:30;;;;;;;0.50;0.50;;;;;;;16.93;35.60;100984.13;15550389;28;20046;-50
2023/04/28 11:45:03;;;;;;;3.13;1.25;;;;;;;17.69;34.49;100973.56;15550001;28;20840;-50
2023/04/28 11:52:47;;;;;;;1.65;0.88;;;;;;;17.71;33.26;100962.44;15549151;28;20117;-49
2023/04/28 12:00:21;;;;;;;0.68;0.40;;;;;;;17.63;32.98;100962.91;15550245;28;20049;-50
2023/04/28 12:07:56;;;;;;;3.47;1.00;;;;;;;17.40;34.27;100958.53;15557997;28;20406;-54
2023/04/28 12:15:42;;;;;;;4.38;0.88;;;;;;;17.44;34.86;100949.63;15560503;28;20072;-51
2023/04/28 12:23:28;;;;;;;1.13;0.50;;;;;;;16.98;34.90;100938.13;15542852;28;20132;-47
2023/04/28 12:31:04;;;;;;;2.30;1.00;;;;;;;17.22;35.32;100930.59;15519284;28;20073;-48
2023/04/28 12:38:47;;;;;;;2.50;0.35;;;;;;;16.88;36.44;100927.13;15559687;28;20406;-50
2023/04/28 12:46:20;;;;;;;0.95;0.55;;;;;;;17.19;35.82;100919.41;15542336;28;20080;-51
2023/04/28 12:53:54;;;;;;;1.20;0.68;;;;;;;17.68;33.96;100923.06;15538397;28;20125;-48
2023/04/28 13:01:27;;;;;;;1.17;0.68;;;;;;;16.87;35.80;100914.59;15532228;28;20048;-48
2023/04/28 13:09:02;;;;;;;;;;;;;;;17.08;36.11;100913.03;15549040;28;20050;-52
2023/04/28 13:16:35;;;;;;;2.40;0.70;;;;;;;17.19;37.36;100908.56;15548963;28;20150;-48
2023/04/28 13:24:10;;;;;;;1.65;0.82;;;;;;;16.86;37.29;100899.41;15545177;28;20124;-50
2023/04/28 13:31:43;;;;;;;2.35;1.42;;;;;;;16.73;38.01;100887.00;15551193;28;20056;-50
2023/04/28 13:39:19;;;;;;;2.77;1.43;;;;;;;16.50;38.44;100885.25;15548626;28;20406;-48
2023/04/28 13:46:53;;;;;;;0.55;0.55;;;;;;;16.21;39.63;100880.97;15549323;28;20525;-48
2023/04/28 13:54:27;;;;;;;1.10;0.88;;;;;;;16.22;40.41;100877.19;15553325;28;20357;-49
2023/04/28 14:02:00;;;;;;;1.35;1.10;;;;;;;15.92;40.37;100872.88;15526666;28;20045;-48
2023/04/28 14:09:35;;;;;;;5.57;1.63;;;;;;;15.53;41.47;100869.94;15541496;28;20060;-51
2023/04/28 14:17:07;;;;;;;1.13;0.55;;;;;;;15.83;41.69;100855.38;15543704;28;20042;-50
2023/04/28 14:24:42;;;;;;;1.58;0.77;;;;;;;15.96;41.26;100856.97;15531586;28;20482;-50
2023/04/28 14:32:15;;;;;;;8.52;1.58;;;;;;;15.34;43.15;100854.09;15548170;28;20064;-51
2023/04/28 14:39:49;;;;;;;;;;;;;;;15.47;44.51;100860.06;15544558;28;20033;-47
2023/04/28 14:47:22;;;;;;;2.20;0.88;;;;;;;15.14;48.50;100855.31;15548172;28;20383;-48
2023/04/28 14:54:57;;;;;;;5.57;0.85;;;;;;;15.20;51.77;100848.97;15547765;28;20041;-48
2023/04/28 15:02:30;;;;;;;0.70;0.60;;;;;;;14.94;52.48;100830.56;15531694;28;20138;-54
2023/04/28 15:10:05;;;;;;;3.17;0.57;;;;;;;15.53;50.63;100823.13;15545194;28;20182;-48
2023/04/28 15:17:38;;;;;;;2.03;1.00;;;;;;;14.96;50.27;100823.81;15542799;28;20042;-50
2023/04/28 15:25:12;;;;;;;2.00;0.80;;;;;;;15.51;49.63;100817.94;15544643;28;20088;-51
2023/04/28 15:32:44;;;;;;;1.23;1.08;;;;;;;15.43;50.37;100812.09;15524936;28;20076;-54
2023/04/28 15:40:20;;;;;;;0.50;0.40;;;;;;;15.32;51.39;100803.78;15545347;28;20034;-52
2023/04/28 15:47:53;;;;;;;2.00;0.73;;;;;;;15.46;49.90;100796.19;15537888;28;20081;-51
2023/04/28 15:55:28;;;;;;;1.58;0.70;;;;;;;15.32;51.77;100784.84;15557153;28;20171;-55
2023/04/28 16:03:02;;;;;;;1.52;0.55;;;;;;;15.09;53.85;100784.09;15531793;28;20372;-47
2023/04/28 16:10:37;;;;;;;2.80;1.48;;;;;;;15.00;55.12;100776.34;15541108;28;20410;-53
2023/04/28 16:18:09;;;;;;;2.80;0.80;;;;;;;15.12;54.87;100765.53;15547954;28;20057;-51
2023/04/28 16:25:43;;;;;;;2.63;1.10;;;;;;;14.97;54.84;100781.44;15557438;28;20134;-52
2023/04/28 16:33:16;;;;;;;0.68;0.40;;;;;;;15.11;53.52;100779.25;15539771;28;20125;-53
2023/04/28 16:40:52;;;;;;;1.52;1.08;;;;;;;14.68;54.53;100778.63;15511875;28;20069;-48
2023/04/28 16:48:25;;;;;;;2.10;0.55;;;;;;;14.78;54.26;100780.72;15526155;28;20141;-52
2023/04/28 16:56:01;;;;;;;1.98;0.80;;;;;;;14.64;55.84;100779.34;15556220;28;20107;-49
2023/04/28 17:03:39;;;;;;;1.65;0.75;;;;;;;14.53;55.98;100762.09;15540806;28;20120;-52
2023/04/28 17:11:16;;;;;;;2.47;0.90;;;;;;;14.28;57.17;100755.03;15555300;28;20053;-48
2023/04/28 17:18:51;;;;;;;1.77;0.93;;;;;;;14.17;58.73;100757.69;15556517;28;20387;-49
2023/04/28 17:26:29;;;;;;;6.32;0.98;;;;;;;13.96;60.97;100751.81;15539368;28;20096;-49
2023/04/28 17:34:01;;;;;;;2.13;1.52;;;;;;;13.96;61.99;100754.50;15537679;28;20510;-51
2023/04/28 17:41:35;;;;;;;1.43;0.63;;;;;;;14.34;60.04;100742.44;15536985;28;20057;-50
2023/04/28 17:49:08;;;;;;;1.40;1.05;;;;;;;14.01;61.33;100748.41;15553833;28;20046;-48
2023/04/28 17:56:42;;;;;;;5.20;1.80;;;;;;;14.23;60.89;100740.59;15553809;28;20310;-52
2023/04/28 18:04:14;;;;;;;4.35;2.42;;;;;;;13.72;61.86;100742.84;15536309;28;20034;-53
2023/04/28 18:11:49;;;;;;;4.95;0.88;;;;;;;13.88;61.76;100745.94;15553232;28;20038;-51
2023/04/28 18:19:22;;;;;;;2.80;1.25;;;;;;;13.54;62.09;100742.91;15552906;28;20049;-48
2023/04/28 18:26:56;;;;;;;1.50;0.63;;;;;;;13.47;62.33;100740.28;15554524;28;20053;-56
2023/04/28 18:34:33;;;;;;;3.78;0.95;;;;;;;13.92;60.78;100728.22;15554038;28;20100;-50
2023/04/28 18:42:07;;;;;;;;;;;;;;;13.26;61.31;100714.69;15552154;28;20045;-52
2023/04/28 18:49:40;;;;;;;1.77;1.52;;;;;;;13.27;62.07;100710.94;15551725;28;19933;-50
2023/04/28 18:57:16;;;;;;;1.95;0.82;;;;;;;12.76;63.83;100714.84;15537857;28;20089;-49
2023/04/28 19:04:49;;;;;;;1.40;1.20;;;;;;;12.85;64.15;100720.78;15542643;28;20065;-53
2023/04/28 19:12:23;;;;;;;3.63;0.70;;;;;;;12.91;64.04;100716.34;15547573;28;20042;-48
2023/04/28 19:19:57;;;;;;;0.38;0.38;;;;;;;13.09;63.23;100723.59;15537405;28;20414;-48
2023/04/28 19:27:32;;;;;;;;;;;;;;;13.10;62.87;100728.75;15549351;28;20038;-50
2023/04/28 19:35:05;;;;;;;11.20;1.95;;;;;;;13.25;61.90;100721.13;15549116;28;19921;-53
2023/04/28 19:42:39;;;;;;;4.15;1.10;;;;;;;13.06;62.79;100719.50;15531667;28;20068;-51
2023/04/28 19:50:12;;;;;;;13.48;1.65;;;;;;;13.33;61.85;100711.88;15515733;28;20057;-48
2023/04/28 19:57:46;;;;;;;2.13;1.77;;;;;;;13.08;62.55;100717.38;15550408;28;20606;-54
2023/04/28 20:05:19;;;;;;;4.65;1.88;;;;;;;13.03;62.47;100719.94;15550861;28;20041;-47
2023/04/28 20:12:54;;;;;;;2.50;2.20;;;;;;;12.97;63.11;100715.47;15549706;28;20518;-47
2023/04/28 20:20:27;;;;;;;3.13;1.55;;;;;;;12.57;62.64;100704.31;15548681;28;20080;-49
2023/04/28 20:28:01;;;;;;;2.15;1.10;;;;;;;12.99;60.99;100694.50;15556347;28;20525;-51
2023/04/28 20:35:50;;;;;;;3.00;1.58;;;;;;;12.77;61.25;100683.38;15540418;28;20494;-50
2023/04/28 20:43:24;;;;;;;4.43;1.08;;;;;;;12.70;61.90;100678.06;15557222;28;20096;-50
2023/04/28 20:50:57;;;;;;;1.42;1.08;;;;;;;12.68;62.07;100676.63;15556797;28;20072;-53
2023/04/28 20:58:31;;;;;;;;;;;;;;;12.76;62.28;100666.38;15556214;28;20077;-48
2023/04/28 21:06:04;;;;;;;2.55;1.70;;;;;;;12.48;63.43;100658.84;15556054;28;19921;-49
2023/04/28 21:13:38;;;;;;;2.80;1.07;;;;;;;12.91;62.36;100646.31;15556134;28;20496;-51
2023/04/28 21:21:11;;;;;;;2.78;1.23;;;;;;;12.72;62.97;100640.94;15520365;28;20053;-50
2023/04/28 21:28:45;;;;;;;1.77;0.93;;;;;;;12.62;63.46;100650.63;15549448;28;20056;-48
2023/04/28 21:36:18;;;;;;;1.95;1.83;;;;;;;12.68;63.66;100647.00;15532288;28;20038;-49
2023/04/28 21:43:53;;;;;;;3.00;1.45;;;;;;;12.46;64.64;100644.81;15535285;28;20052;-50
2023/04/28 21:51:26;;;;;;;3.78;1.42;;;;;;;12.57;64.48;100629.75;15534016;28;20104;-49
2023/04/28 21:59:00;;;;;;;4.13;2.13;;;;;;;12.34;64.59;100632.31;15552457;28;20052;-51
2023/04/28 22:06:34;;;;;;;3.55;2.13;;;;;;;12.27;65.11;100628.88;15549045;28;20049;-48
2023/04/28 22:14:09;;;;;;;2.85;1.05;;;;;;;12.39;64.43;100630.59;15558637;28;20046;-47
2023/04/28 22:21:42;;;;;;;3.03;2.67;;;;;;;12.02;65.21;100613.59;15549935;28;20084;-50
2023/04/28 22:29:16;;;;;;;2.03;1.55;;;;;;;11.94;65.60;100611.22;15549075;22;20053;-50
2023/04/28 22:36:48;;;;;;;0.70;0.65;;;;;;;11.87;65.81;100605.88;15525233;28;20448;-48
2023/04/28 22:44:22;;;;;;;1.97;1.30;;;;;;;11.85;66.22;100594.53;15576448;28;20103;-48
2023/04/28 22:51:55;;;;;;;2.95;1.95;;;;;;;11.95;65.51;100600.22;15563024;28;20052;-47
2023/04/28 22:59:29;;;;;;;3.53;1.60;;;;;;;12.37;64.35;100597.69;15551627;28;20049;-47
2023/04/28 23:07:02;;;;;;;3.65;1.90;;;;;;;12.10;65.38;100594.47;15586584;28;20049;-48
2023/04/28 23:14:36;;;;;;;;;;;;;;;11.92;65.88;100589.91;15592389;28;20034;-49
2023/04/28 23:22:09;;;;;;;1.77;1.08;;;;;;;12.10;65.29;100580.22;15554533;28;19965;-51
2023/04/28 23:29:43;;;;;;;2.43;1.60;;;;;;;12.31;64.57;100560.94;15548885;28;20056;-49
2023/04/28 23:37:16;;;;;;;1.38;0.85;;;;;;;12.10;64.69;100529.91;15587108;28;20046;-51
2023/04/28 23:44:51;;;;;;;2.30;1.27;;;;;;;12.12;64.99;100549.31;15590280;28;20470;-48
2023/04/28 23:52:24;;;;;;;2.72;1.77;;;;;;;12.25;64.81;100522.25;15570810;28;20046;-50
2023/04/28 23:59:58;;;;;;;2.92;1.60;;;;;;;12.54;63.65;100535.16;15570644;28;20108;-49
